createdAt,value
2022-10-08T00:01:02.272Z,5.87
2022-10-08T00:03:31.443Z,5.57
2022-10-08T00:06:14.756Z,4.90
2022-10-08T00:08:43.434Z,4.63
2022-10-08T00:11:12.356Z,3.70
2022-10-08T00:13:41.354Z,4.17
2022-10-08T00:16:13.737Z,4.00
2022-10-08T00:18:41.219Z,3.87
2022-10-08T00:21:14.303Z,4.37
2022-10-08T00:23:41.525Z,3.67
2022-10-08T00:26:08.399Z,4.27
2022-10-08T00:28:36.584Z,4.33
2022-10-08T00:31:08.227Z,3.23
2022-10-08T00:33:38.728Z,4.90
2022-10-08T00:36:07.758Z,3.23
2022-10-08T00:38:34.801Z,4.07
2022-10-08T00:41:01.572Z,3.83
2022-10-08T00:43:46.535Z,3.60
2022-10-08T00:46:23.097Z,3.90
2022-10-08T00:48:53.455Z,3.90
2022-10-08T00:51:19.982Z,4.60
2022-10-08T00:53:47.115Z,4.53
2022-10-08T00:56:13.716Z,3.80
2022-10-08T00:58:41.565Z,4.27
2022-10-08T01:01:08.584Z,4.03
2022-10-08T01:03:35.387Z,5.00
2022-10-08T01:06:22.159Z,5.20
2022-10-08T01:08:57.832Z,4.33
2022-10-08T01:11:43.104Z,4.30
2022-10-08T01:14:20.816Z,4.30
2022-10-08T01:17:25.803Z,5.67
2022-10-08T01:20:21.545Z,5.30
2022-10-08T01:23:13.022Z,5.00
2022-10-08T01:25:55.757Z,4.30
2022-10-08T01:28:36.426Z,5.00
2022-10-08T01:31:23.322Z,6.70
2022-10-08T01:33:59.028Z,7.20
2022-10-08T01:36:27.924Z,6.17
2022-10-08T01:38:57.795Z,5.87
2022-10-08T01:41:25.738Z,4.90
2022-10-08T01:44:08.431Z,6.87
2022-10-08T01:46:37.560Z,4.73
2022-10-08T01:49:08.091Z,3.80
2022-10-08T01:51:39.346Z,4.60
2022-10-08T01:54:08.506Z,4.90
2022-10-08T01:56:37.150Z,6.00
2022-10-08T01:59:08.732Z,6.90
2022-10-08T02:01:40.233Z,6.63
2022-10-08T02:04:25.605Z,6.83
2022-10-08T02:06:57.273Z,5.73
2022-10-08T02:09:27.982Z,5.90
2022-10-08T02:11:55.102Z,4.80
2022-10-08T02:14:25.754Z,4.47
2022-10-08T02:17:03.760Z,5.87
2022-10-08T02:19:47.084Z,4.73
2022-10-08T02:22:16.860Z,5.67
2022-10-08T02:24:48.015Z,6.77
2022-10-08T02:27:15.413Z,11.93
2022-10-08T02:29:45.548Z,9.57
2022-10-08T02:32:31.738Z,11.20
2022-10-08T02:35:05.393Z,8.83
2022-10-08T02:37:37.796Z,4.63
2022-10-08T02:40:11.419Z,4.03
2022-10-08T02:42:42.012Z,3.73
2022-10-08T02:45:14.039Z,3.90
2022-10-08T02:47:42.061Z,4.20
2022-10-08T02:50:15.714Z,4.57
2022-10-08T02:52:45.327Z,4.27
2022-10-08T02:55:22.629Z,4.40
2022-10-08T02:57:56.843Z,3.60
2022-10-08T03:00:23.602Z,4.60
2022-10-08T03:02:58.843Z,4.50
2022-10-08T03:05:26.434Z,6.30
2022-10-08T03:07:54.182Z,6.03
2022-10-08T03:10:25.811Z,4.73
2022-10-08T03:13:00.262Z,4.73
2022-10-08T03:15:27.794Z,4.30
2022-10-08T03:17:54.465Z,4.43
2022-10-08T03:20:21.329Z,3.87
2022-10-08T03:22:48.054Z,4.10
2022-10-08T03:25:14.816Z,3.40
2022-10-08T03:27:41.710Z,3.83
2022-10-08T03:30:08.959Z,3.07
2022-10-08T03:32:35.525Z,3.30
2022-10-08T03:35:02.425Z,3.63
2022-10-08T03:37:29.902Z,3.37
2022-10-08T03:39:56.365Z,3.03
2022-10-08T03:42:22.845Z,3.40
2022-10-08T03:44:49.305Z,3.60
2022-10-08T03:47:15.862Z,3.17
2022-10-08T03:49:42.427Z,3.03
2022-10-08T03:52:09.003Z,3.07
2022-10-08T03:54:36.855Z,4.13
2022-10-08T03:57:04.031Z,3.50
2022-10-08T03:59:30.833Z,3.80
2022-10-08T04:01:57.278Z,3.20
2022-10-08T04:04:25.751Z,3.40
2022-10-08T04:06:52.483Z,3.30
2022-10-08T04:09:19.221Z,3.37
2022-10-08T04:11:45.717Z,4.17
2022-10-08T04:14:12.228Z,3.80
2022-10-08T04:16:39.012Z,4.80
2022-10-08T04:19:05.786Z,3.97
2022-10-08T04:21:32.359Z,4.07
2022-10-08T04:23:58.869Z,4.53
2022-10-08T04:26:25.615Z,4.20
2022-10-08T04:28:52.297Z,4.17
2022-10-08T04:31:21.838Z,4.70
2022-10-08T04:33:49.728Z,5.10
2022-10-08T04:36:18.493Z,5.80
2022-10-08T04:38:45.932Z,6.20
2022-10-08T04:41:26.170Z,6.10
2022-10-08T04:43:54.432Z,6.17
2022-10-08T04:46:22.299Z,7.00
2022-10-08T04:48:51.631Z,6.80
2022-10-08T04:51:19.619Z,6.83
2022-10-08T04:53:46.808Z,8.00
2022-10-08T04:56:17.103Z,7.53
2022-10-08T04:58:44.141Z,6.90
2022-10-08T05:01:12.864Z,8.00
2022-10-08T05:03:41.633Z,7.47
2022-10-08T05:06:08.756Z,7.67
2022-10-08T05:08:35.709Z,8.30
2022-10-08T05:11:02.537Z,7.63
2022-10-08T05:13:29.507Z,8.60
2022-10-08T05:15:56.049Z,8.33
2022-10-08T05:18:22.920Z,8.90
2022-10-08T05:20:49.750Z,9.00
2022-10-08T05:23:16.440Z,9.47
2022-10-08T05:25:42.947Z,10.23
2022-10-08T05:28:09.448Z,8.30
2022-10-08T05:30:36.014Z,8.80
2022-10-08T05:33:02.605Z,9.03
2022-10-08T05:35:29.310Z,8.80
2022-10-08T05:37:55.909Z,9.57
2022-10-08T05:40:24.182Z,9.50
2022-10-08T05:42:50.988Z,10.30
2022-10-08T05:45:17.574Z,9.50
2022-10-08T05:47:44.106Z,9.57
2022-10-08T05:50:10.979Z,10.27
2022-10-08T05:52:37.483Z,9.93
2022-10-08T05:55:04.847Z,11.00
2022-10-08T05:57:31.318Z,9.90
2022-10-08T05:59:58.104Z,10.90
2022-10-08T06:02:24.640Z,10.37
2022-10-08T06:04:51.873Z,9.13
2022-10-08T06:07:18.554Z,8.93
2022-10-08T06:09:45.196Z,9.97
2022-10-08T06:12:16.138Z,10.47
2022-10-08T06:14:42.595Z,9.27
2022-10-08T06:17:09.239Z,9.40
2022-10-08T06:19:37.182Z,9.87
2022-10-08T06:22:04.890Z,9.00
2022-10-08T06:24:31.761Z,9.07
2022-10-08T06:26:58.355Z,8.77
2022-10-08T06:29:24.844Z,10.43
2022-10-08T06:31:51.917Z,9.17
2022-10-08T06:34:18.663Z,8.20
2022-10-08T06:36:45.171Z,8.00
2022-10-08T06:39:13.820Z,8.30
2022-10-08T06:41:40.364Z,8.80
2022-10-08T06:44:09.688Z,9.53
2022-10-08T06:46:36.220Z,8.50
2022-10-08T06:49:03.711Z,9.90
2022-10-08T06:51:30.700Z,8.80
2022-10-08T06:54:02.796Z,10.20
2022-10-08T06:56:29.639Z,10.33
2022-10-08T06:58:56.181Z,9.60
2022-10-08T07:01:29.027Z,9.40
2022-10-08T07:04:00.542Z,9.50
2022-10-08T07:06:27.199Z,10.07
2022-10-08T07:08:55.691Z,9.47
2022-10-08T07:11:23.046Z,8.90
2022-10-08T07:13:49.812Z,10.33
2022-10-08T07:16:20.500Z,10.30
2022-10-08T07:18:49.693Z,10.10
2022-10-08T07:21:17.498Z,9.00
2022-10-08T07:23:44.506Z,9.57
2022-10-08T07:26:24.993Z,8.90
2022-10-08T07:29:05.968Z,7.80
2022-10-08T07:31:37.878Z,7.87
2022-10-08T07:34:06.801Z,7.77
2022-10-08T07:36:33.744Z,7.90
2022-10-08T07:39:04.211Z,7.60
2022-10-08T07:41:31.795Z,7.80
2022-10-08T07:44:00.291Z,8.63
2022-10-08T07:46:28.286Z,8.80
2022-10-08T07:48:56.773Z,9.33
2022-10-08T07:51:23.377Z,8.33
2022-10-08T07:53:58.958Z,9.97
2022-10-08T07:56:28.900Z,9.63
2022-10-08T07:58:55.495Z,10.70
2022-10-08T08:01:26.457Z,8.80
2022-10-08T08:03:58.063Z,9.90
2022-10-08T08:06:24.905Z,10.57
2022-10-08T08:08:52.138Z,9.47
2022-10-08T08:11:20.581Z,10.30
2022-10-08T08:13:47.998Z,10.60
2022-10-08T08:16:19.560Z,10.90
2022-10-08T08:18:49.040Z,11.40
2022-10-08T08:21:21.600Z,12.40
2022-10-08T08:23:51.026Z,12.50
2022-10-08T08:26:26.587Z,13.27
2022-10-08T08:28:55.189Z,13.70
2022-10-08T08:31:24.225Z,15.40
2022-10-08T08:33:56.292Z,14.50
2022-10-08T08:36:31.058Z,14.67
2022-10-08T08:38:58.090Z,15.53
2022-10-08T08:41:33.779Z,16.40
2022-10-08T08:44:02.274Z,16.03
2022-10-08T08:46:32.651Z,15.63
2022-10-08T08:49:05.141Z,14.37
2022-10-08T08:51:31.697Z,14.67
2022-10-08T08:53:58.261Z,15.00
2022-10-08T08:56:25.074Z,14.43
2022-10-08T08:59:00.493Z,15.43
2022-10-08T09:01:30.101Z,15.90
2022-10-08T09:03:59.551Z,16.63
2022-10-08T09:06:26.351Z,14.63
2022-10-08T09:08:59.559Z,14.87
2022-10-08T09:11:26.434Z,15.20
2022-10-08T09:14:31.274Z,16.37
2022-10-08T09:17:00.787Z,16.93
2022-10-08T09:19:27.278Z,18.87
2022-10-08T09:21:53.869Z,19.40
2022-10-08T09:24:20.508Z,19.83
2022-10-08T09:26:47.018Z,20.90
2022-10-08T09:29:32.484Z,20.67
2022-10-08T09:31:59.188Z,20.20
2022-10-08T09:34:27.205Z,20.40
2022-10-08T09:37:03.272Z,20.10
2022-10-08T09:39:35.694Z,16.43
2022-10-08T09:42:14.611Z,14.30
2022-10-08T09:44:48.322Z,14.57
2022-10-08T09:47:17.511Z,12.90
2022-10-08T09:49:49.687Z,11.90
2022-10-08T09:52:27.042Z,10.80
2022-10-08T09:54:56.460Z,9.37
2022-10-08T09:57:23.039Z,9.47
2022-10-08T09:59:54.813Z,9.20
2022-10-08T10:02:41.490Z,8.53
2022-10-08T10:05:21.990Z,7.80
2022-10-08T10:07:48.759Z,8.00
2022-10-08T10:10:25.986Z,6.83
2022-10-08T10:12:55.624Z,7.20
2022-10-08T10:15:24.599Z,6.33
2022-10-08T10:17:54.487Z,6.43
2022-10-08T10:20:26.373Z,6.73
2022-10-08T10:22:55.755Z,6.23
2022-10-08T10:25:51.375Z,6.23
2022-10-08T10:28:35.659Z,5.40
2022-10-08T10:31:12.823Z,6.30
2022-10-08T10:33:50.011Z,5.87
2022-10-08T10:36:17.660Z,6.73
2022-10-08T10:38:53.629Z,7.20
2022-10-08T10:41:31.636Z,6.30
2022-10-08T10:44:01.162Z,6.83
2022-10-08T10:46:37.165Z,6.23
2022-10-08T10:49:12.680Z,6.10
2022-10-08T10:52:02.504Z,5.30
2022-10-08T10:54:36.432Z,4.63
2022-10-08T10:57:12.251Z,4.70
2022-10-08T10:59:47.917Z,4.30
2022-10-08T11:02:26.296Z,4.17
2022-10-08T11:05:04.357Z,4.20
2022-10-08T11:07:31.000Z,3.53
2022-10-08T11:10:11.993Z,3.80
2022-10-08T11:13:09.445Z,2.57
2022-10-08T11:15:42.244Z,3.80
2022-10-08T11:18:27.976Z,3.30
2022-10-08T11:21:09.211Z,2.40
2022-10-08T11:23:54.582Z,2.93
2022-10-08T11:26:28.411Z,3.17
2022-10-08T11:29:17.432Z,2.73
2022-10-08T11:31:51.024Z,2.90
2022-10-08T11:34:37.709Z,3.07
2022-10-08T11:37:14.233Z,2.47
2022-10-08T11:40:02.987Z,3.00
2022-10-08T11:42:46.198Z,2.87
2022-10-08T11:45:23.270Z,1.70
2022-10-08T11:47:54.452Z,2.20
2022-10-08T11:50:41.275Z,2.17
2022-10-08T11:53:10.889Z,1.77
2022-10-08T11:55:38.115Z,2.00
2022-10-08T11:58:08.360Z,1.83
2022-10-08T12:00:42.089Z,2.13
2022-10-08T12:03:20.982Z,1.90
2022-10-08T12:05:51.220Z,2.60
2022-10-08T12:08:50.867Z,2.43
2022-10-08T12:11:29.539Z,2.23
2022-10-08T12:14:11.611Z,2.70
2022-10-08T12:16:47.516Z,2.97
2022-10-08T12:19:32.644Z,2.33
2022-10-08T12:22:00.714Z,1.90
2022-10-08T12:24:36.907Z,2.43
2022-10-08T12:27:32.135Z,2.50
2022-10-08T12:30:12.182Z,1.67
2022-10-08T12:32:42.236Z,1.63
2022-10-08T12:35:23.767Z,1.40
2022-10-08T12:38:07.935Z,2.20
2022-10-08T12:40:38.323Z,1.90
2022-10-08T12:43:23.016Z,2.23
2022-10-08T12:45:59.202Z,1.70
2022-10-08T12:48:34.905Z,1.90
2022-10-08T12:51:21.719Z,1.70
2022-10-08T12:53:48.435Z,2.77
2022-10-08T12:56:26.051Z,1.87
2022-10-08T12:58:55.509Z,1.63
2022-10-08T13:01:22.459Z,2.60
2022-10-08T13:04:07.595Z,2.00
2022-10-08T13:06:34.767Z,1.80
2022-10-08T13:09:01.498Z,1.80
2022-10-08T13:11:28.192Z,1.50
2022-10-08T13:13:54.690Z,1.37
2022-10-08T13:16:22.638Z,1.50
2022-10-08T13:18:54.280Z,1.70
2022-10-08T13:21:36.824Z,1.50
2022-10-08T13:24:13.923Z,1.87
2022-10-08T13:26:43.323Z,1.30
2022-10-08T13:29:22.278Z,1.93
2022-10-08T13:31:56.592Z,0.93
2022-10-08T13:34:25.689Z,1.33
2022-10-08T13:36:56.703Z,1.33
2022-10-08T13:39:48.359Z,1.33
2022-10-08T13:42:16.867Z,1.57
2022-10-08T13:44:43.795Z,1.30
2022-10-08T13:47:18.925Z,1.67
2022-10-08T13:49:45.999Z,1.87
2022-10-08T13:52:24.199Z,2.27
2022-10-08T13:54:54.417Z,1.50
2022-10-08T13:57:20.888Z,1.50
2022-10-08T13:59:47.432Z,1.23
2022-10-08T14:02:14.523Z,1.50
2022-10-08T14:04:41.331Z,1.40
2022-10-08T14:07:20.585Z,2.13
2022-10-08T14:09:47.345Z,1.40
2022-10-08T14:12:14.286Z,1.50
2022-10-08T14:14:40.880Z,1.10
2022-10-08T14:17:07.361Z,1.63
2022-10-08T14:19:34.094Z,1.30
2022-10-08T14:22:00.935Z,1.60
2022-10-08T14:24:27.462Z,2.60
2022-10-08T14:26:54.115Z,3.70
2022-10-08T14:29:20.897Z,1.63
2022-10-08T14:31:47.466Z,1.10
2022-10-08T14:34:13.958Z,1.23
2022-10-08T14:36:41.675Z,1.30
2022-10-08T14:39:09.885Z,1.33
2022-10-08T14:41:36.844Z,1.20
2022-10-08T14:44:03.988Z,1.20
2022-10-08T14:46:30.541Z,1.30
2022-10-08T14:48:57.115Z,1.10
2022-10-08T14:51:23.946Z,1.40
2022-10-08T14:53:51.924Z,1.40
2022-10-08T14:56:18.585Z,1.23
2022-10-08T14:58:45.367Z,1.63
2022-10-08T15:01:12.021Z,1.07
2022-10-08T15:03:38.672Z,1.30
2022-10-08T15:06:05.391Z,1.30
2022-10-08T15:08:32.151Z,1.30
2022-10-08T15:11:01.654Z,1.43
2022-10-08T15:13:29.022Z,1.63
2022-10-08T15:15:55.793Z,1.57
2022-10-08T15:18:22.443Z,1.53
2022-10-08T15:20:56.714Z,1.40
2022-10-08T15:23:24.251Z,1.57
2022-10-08T15:26:01.357Z,1.57
2022-10-08T15:28:29.035Z,1.70
2022-10-08T15:31:03.411Z,1.60
2022-10-08T15:33:30.106Z,2.20
2022-10-08T15:35:56.756Z,1.60
2022-10-08T15:38:23.309Z,2.10
2022-10-08T15:40:49.854Z,1.50
2022-10-08T15:43:16.530Z,1.33
2022-10-08T15:45:43.753Z,1.73
2022-10-08T15:48:11.953Z,2.30
2022-10-08T15:50:39.398Z,2.27
2022-10-08T15:53:07.097Z,1.63
2022-10-08T15:55:33.773Z,1.90
2022-10-08T15:58:00.544Z,1.57
2022-10-08T16:00:27.212Z,1.47
2022-10-08T16:02:55.277Z,1.97
2022-10-08T16:05:21.885Z,1.90
2022-10-08T16:07:48.334Z,2.90
2022-10-08T16:10:15.020Z,1.90
2022-10-08T16:12:41.755Z,2.23
2022-10-08T16:15:09.391Z,2.07
2022-10-08T16:17:37.150Z,2.20
2022-10-08T16:20:04.232Z,1.73
2022-10-08T16:22:30.749Z,2.80
2022-10-08T16:24:57.218Z,2.40
2022-10-08T16:27:23.724Z,2.00
2022-10-08T16:29:50.380Z,3.33
2022-10-08T16:32:16.857Z,3.27
2022-10-08T16:34:45.292Z,2.30
2022-10-08T16:37:12.598Z,2.20
2022-10-08T16:39:39.013Z,2.97
2022-10-08T16:42:05.510Z,3.03
2022-10-08T16:44:31.969Z,4.37
2022-10-08T16:46:58.587Z,2.97
2022-10-08T16:49:27.579Z,4.70
2022-10-08T16:51:59.498Z,4.10
2022-10-08T16:54:26.550Z,3.80
2022-10-08T16:56:53.967Z,4.30
2022-10-08T16:59:23.041Z,2.77
2022-10-08T17:01:52.979Z,3.83
2022-10-08T17:04:20.967Z,2.90
2022-10-08T17:06:47.817Z,3.00
2022-10-08T17:09:14.333Z,2.80
2022-10-08T17:11:41.909Z,3.67
2022-10-08T17:14:10.152Z,2.40
2022-10-08T17:16:36.767Z,2.63
2022-10-08T17:19:04.571Z,2.10
2022-10-08T17:21:32.693Z,2.37
2022-10-08T17:23:59.945Z,1.70
2022-10-08T17:26:27.743Z,2.40
2022-10-08T17:28:54.785Z,2.10
2022-10-08T17:31:24.595Z,2.33
2022-10-08T17:33:51.078Z,2.30
2022-10-08T17:36:30.298Z,3.20
2022-10-08T17:38:59.095Z,2.40
2022-10-08T17:41:26.898Z,2.90
2022-10-08T17:43:55.673Z,2.43
2022-10-08T17:46:23.889Z,2.40
2022-10-08T17:48:50.870Z,2.37
2022-10-08T17:51:20.230Z,2.47
2022-10-08T17:54:07.391Z,2.53
2022-10-08T17:56:34.977Z,1.93
2022-10-08T17:59:01.488Z,2.50
2022-10-08T18:01:30.574Z,2.23
2022-10-08T18:03:59.703Z,2.30
2022-10-08T18:06:26.921Z,3.00
2022-10-08T18:09:04.485Z,2.73
2022-10-08T18:11:32.561Z,3.03
2022-10-08T18:13:59.182Z,2.77
2022-10-08T18:16:25.894Z,2.20
2022-10-08T18:18:52.449Z,3.30
2022-10-08T18:21:19.675Z,2.23
2022-10-08T18:23:47.137Z,2.60
2022-10-08T18:26:25.431Z,3.30
2022-10-08T18:28:54.135Z,2.57
2022-10-08T18:31:21.947Z,2.67
2022-10-08T18:33:50.276Z,2.67
2022-10-08T18:36:19.576Z,3.30
2022-10-08T18:38:48.013Z,2.80
2022-10-08T18:41:19.801Z,2.20
2022-10-08T18:43:47.675Z,2.93
2022-10-08T18:46:15.757Z,2.80
2022-10-08T18:48:42.494Z,3.20
2022-10-08T18:51:11.402Z,4.00
2022-10-08T18:53:39.711Z,3.77
2022-10-08T18:56:09.468Z,5.20
2022-10-08T18:58:36.789Z,5.23
2022-10-08T19:01:03.588Z,3.67
2022-10-08T19:03:30.202Z,3.80
2022-10-08T19:05:56.792Z,4.73
2022-10-08T19:08:23.427Z,4.17
2022-10-08T19:10:49.983Z,4.50
2022-10-08T19:13:16.910Z,3.83
2022-10-08T19:15:43.643Z,5.33
2022-10-08T19:18:10.219Z,5.10
2022-10-08T19:20:36.890Z,4.60
2022-10-08T19:23:04.119Z,4.60
2022-10-08T19:25:30.673Z,4.50
2022-10-08T19:27:57.404Z,4.23
2022-10-08T19:30:27.389Z,4.97
2022-10-08T19:32:56.053Z,4.57
2022-10-08T19:35:22.604Z,4.90
2022-10-08T19:37:52.206Z,5.00
2022-10-08T19:40:18.665Z,5.13
2022-10-08T19:42:45.416Z,4.77
2022-10-08T19:45:13.414Z,5.20
2022-10-08T19:47:40.098Z,5.50
2022-10-08T19:50:06.981Z,4.97
2022-10-08T19:52:33.511Z,5.10
2022-10-08T19:55:00.249Z,4.83
2022-10-08T19:57:26.770Z,4.93
2022-10-08T19:59:53.830Z,4.33
2022-10-08T20:02:20.444Z,5.20
2022-10-08T20:04:47.868Z,4.80
2022-10-08T20:07:14.438Z,4.70
2022-10-08T20:09:40.924Z,4.97
2022-10-08T20:12:07.469Z,4.53
2022-10-08T20:14:33.965Z,4.27
2022-10-08T20:17:00.924Z,3.90
2022-10-08T20:19:27.437Z,4.40
2022-10-08T20:21:56.929Z,4.70
2022-10-08T20:24:23.509Z,4.60
2022-10-08T20:26:50.252Z,4.60
2022-10-08T20:29:19.348Z,5.13
2022-10-08T20:31:51.264Z,5.40
2022-10-08T20:34:19.892Z,5.30
2022-10-08T20:36:47.731Z,4.83
2022-10-08T20:39:15.787Z,4.87
2022-10-08T20:41:42.619Z,6.23
2022-10-08T20:44:09.293Z,6.43
2022-10-08T20:46:37.074Z,5.20
2022-10-08T20:49:04.754Z,5.83
2022-10-08T20:51:31.908Z,5.60
2022-10-08T20:54:03.850Z,5.27
2022-10-08T20:56:37.147Z,5.70
2022-10-08T20:59:14.804Z,6.43
2022-10-08T21:01:41.677Z,5.77
2022-10-08T21:04:08.750Z,6.03
2022-10-08T21:06:40.487Z,6.03
2022-10-08T21:09:07.803Z,5.60
2022-10-08T21:11:34.681Z,6.20
2022-10-08T21:14:03.415Z,6.20
2022-10-08T21:16:32.859Z,6.17
2022-10-08T21:19:01.650Z,5.40
2022-10-08T21:21:29.468Z,6.53
2022-10-08T21:23:56.710Z,5.90
2022-10-08T21:26:24.574Z,5.90
2022-10-08T21:28:55.169Z,6.63
2022-10-08T21:31:22.143Z,5.73
2022-10-08T21:33:50.445Z,6.13
2022-10-08T21:36:21.297Z,5.87
2022-10-08T21:38:47.753Z,5.90
2022-10-08T21:41:16.594Z,5.40
2022-10-08T21:43:48.869Z,5.03
2022-10-08T21:46:18.062Z,5.20
2022-10-08T21:48:44.792Z,5.27
2022-10-08T21:51:21.792Z,6.00
2022-10-08T21:53:51.470Z,5.63
2022-10-08T21:56:20.699Z,5.83
2022-10-08T21:58:49.419Z,5.57
2022-10-08T22:01:29.502Z,5.60
2022-10-08T22:04:01.538Z,5.90
2022-10-08T22:06:30.709Z,10.23
2022-10-08T22:08:57.610Z,4.93
2022-10-08T22:11:25.019Z,5.50
2022-10-08T22:13:53.642Z,5.40
2022-10-08T22:16:21.575Z,6.03
2022-10-08T22:18:48.564Z,5.30
2022-10-08T22:21:18.621Z,4.30
2022-10-08T22:23:46.323Z,5.27
2022-10-08T22:26:19.062Z,5.57
2022-10-08T22:28:46.104Z,6.47
2022-10-08T22:31:14.674Z,5.33
2022-10-08T22:33:41.625Z,5.87
2022-10-08T22:36:14.341Z,5.60
2022-10-08T22:38:42.170Z,5.77
2022-10-08T22:41:14.931Z,5.67
2022-10-08T22:43:42.312Z,5.30
2022-10-08T22:46:14.623Z,6.53
2022-10-08T22:48:41.747Z,5.27
2022-10-08T22:51:12.864Z,6.00
2022-10-08T22:53:39.457Z,5.17
2022-10-08T22:56:07.229Z,5.70
2022-10-08T22:58:35.192Z,4.77
2022-10-08T23:01:08.564Z,5.10
2022-10-08T23:03:35.856Z,4.70
2022-10-08T23:06:03.936Z,5.67
2022-10-08T23:08:30.697Z,5.50
2022-10-08T23:10:58.228Z,5.90
2022-10-08T23:13:25.128Z,5.23
2022-10-08T23:16:06.502Z,5.00
2022-10-08T23:18:35.570Z,5.40
2022-10-08T23:21:23.143Z,5.57
2022-10-08T23:23:50.637Z,5.40
2022-10-08T23:26:17.569Z,5.30
2022-10-08T23:28:45.206Z,5.10
2022-10-08T23:31:14.370Z,5.37
2022-10-08T23:33:43.798Z,5.97
2022-10-08T23:36:12.243Z,5.63
2022-10-08T23:38:39.059Z,5.70
2022-10-08T23:41:07.566Z,5.47
2022-10-08T23:43:35.972Z,5.73
2022-10-08T23:46:03.339Z,5.60
2022-10-08T23:48:29.993Z,5.00
2022-10-08T23:50:56.905Z,5.27
2022-10-08T23:53:23.509Z,5.80
2022-10-08T23:55:50.269Z,5.20
2022-10-08T23:58:19.706Z,4.67
